createdAt,value
2018-05-19T00:01:23.084Z,73.70
2018-05-19T00:03:49.359Z,73.80
2018-05-19T00:06:15.583Z,74.00
2018-05-19T00:08:41.798Z,74.30
2018-05-19T00:11:08.440Z,74.70
2018-05-19T00:13:35.043Z,74.70
2018-05-19T00:16:02.043Z,74.70
2018-05-19T00:18:28.300Z,74.90
2018-05-19T00:20:54.926Z,75.10
2018-05-19T00:23:21.166Z,75.10
2018-05-19T00:25:47.402Z,75.20
2018-05-19T00:28:13.608Z,75.30
2018-05-19T00:30:39.814Z,75.50
2018-05-19T00:33:06.018Z,75.50
2018-05-19T00:35:32.234Z,75.30
2018-05-19T00:37:58.434Z,74.70
2018-05-19T00:40:24.645Z,74.50
2018-05-19T00:42:54.020Z,74.50
2018-05-19T00:45:20.268Z,74.50
2018-05-19T00:47:46.486Z,74.60
2018-05-19T00:50:12.713Z,75.00
2018-05-19T00:52:38.914Z,75.20
2018-05-19T00:55:05.552Z,75.20
2018-05-19T00:57:31.830Z,75.20
2018-05-19T00:59:58.051Z,75.30
2018-05-19T01:02:24.299Z,75.10
2018-05-19T01:04:50.513Z,75.60
2018-05-19T01:07:16.741Z,75.80
2018-05-19T01:09:42.984Z,76.00
2018-05-19T01:12:09.255Z,75.70
2018-05-19T01:14:36.388Z,75.70
2018-05-19T01:17:02.645Z,75.70
2018-05-19T01:19:28.874Z,75.50
2018-05-19T01:21:55.105Z,75.70
2018-05-19T01:24:21.362Z,75.80
2018-05-19T01:26:47.642Z,75.90
2018-05-19T01:29:14.224Z,75.90
2018-05-19T01:31:40.471Z,75.90
2018-05-19T01:34:06.703Z,76.00
2018-05-19T01:36:32.915Z,76.00
2018-05-19T01:38:59.143Z,76.00
2018-05-19T01:41:26.011Z,76.10
2018-05-19T01:43:52.249Z,76.10
2018-05-19T01:46:18.507Z,76.00
2018-05-19T01:48:44.704Z,76.10
2018-05-19T01:51:11.299Z,76.30
2018-05-19T01:53:37.589Z,76.30
2018-05-19T01:56:04.166Z,76.40
2018-05-19T01:58:30.393Z,76.40
2018-05-19T02:00:56.661Z,76.40
2018-05-19T02:03:22.886Z,76.20
2018-05-19T02:05:49.096Z,76.20
2018-05-19T02:08:15.369Z,76.10
2018-05-19T02:10:41.581Z,75.90
2018-05-19T02:13:08.185Z,75.80
2018-05-19T02:15:34.807Z,76.00
2018-05-19T02:18:01.045Z,75.90
2018-05-19T02:20:27.289Z,75.70
2018-05-19T02:22:53.532Z,75.50
2018-05-19T02:25:19.736Z,75.60
2018-05-19T02:27:45.989Z,75.70
2018-05-19T02:30:12.224Z,75.90
2018-05-19T02:32:38.430Z,76.10
2018-05-19T02:35:04.658Z,76.10
2018-05-19T02:37:30.910Z,76.50
2018-05-19T02:39:57.493Z,76.30
2018-05-19T02:42:25.126Z,76.30
2018-05-19T02:44:51.382Z,76.20
2018-05-19T02:47:17.613Z,76.40
2018-05-19T02:49:43.819Z,76.50
2018-05-19T02:52:10.063Z,76.80
2018-05-19T02:54:36.296Z,76.90
2018-05-19T02:57:02.527Z,76.80
2018-05-19T02:59:28.816Z,76.60
2018-05-19T03:01:55.378Z,76.40
2018-05-19T03:04:21.582Z,76.40
2018-05-19T03:06:48.183Z,76.60
2018-05-19T03:09:14.413Z,76.60
2018-05-19T03:11:40.647Z,76.80
2018-05-19T03:14:06.875Z,77.30
2018-05-19T03:16:33.097Z,77.20
2018-05-19T03:18:59.303Z,77.00
2018-05-19T03:21:25.549Z,77.20
2018-05-19T03:23:51.790Z,77.40
2018-05-19T03:26:17.999Z,77.40
2018-05-19T03:28:45.269Z,77.00
2018-05-19T03:31:11.479Z,76.80
2018-05-19T03:33:37.691Z,76.50
2018-05-19T03:36:03.922Z,76.90
2018-05-19T03:38:30.175Z,76.30
2018-05-19T03:40:56.413Z,76.10
2018-05-19T03:43:22.661Z,76.20
2018-05-19T03:45:48.869Z,76.60
2018-05-19T03:48:15.084Z,76.60
2018-05-19T03:50:41.320Z,76.60
2018-05-19T03:53:07.523Z,76.80
2018-05-19T03:55:33.752Z,77.00
2018-05-19T03:58:12.305Z,77.10
2018-05-19T04:00:51.612Z,77.20
2018-05-19T04:03:18.752Z,77.20
2018-05-19T04:05:44.970Z,77.30
2018-05-19T04:08:11.204Z,77.50
2018-05-19T04:10:37.487Z,77.60
2018-05-19T04:13:04.060Z,77.50
2018-05-19T04:15:30.255Z,77.50
2018-05-19T04:17:56.970Z,77.40
2018-05-19T04:20:23.241Z,77.30
2018-05-19T04:22:49.463Z,77.50
2018-05-19T04:25:15.682Z,77.00
2018-05-19T04:27:41.944Z,77.10
2018-05-19T04:30:08.182Z,77.20
2018-05-19T04:32:34.394Z,77.30
2018-05-19T04:35:00.620Z,77.10
2018-05-19T04:37:27.809Z,76.70
2018-05-19T04:39:54.080Z,77.00
2018-05-19T04:42:20.320Z,77.10
2018-05-19T04:44:46.540Z,77.60
2018-05-19T04:47:12.772Z,77.90
2018-05-19T04:49:39.000Z,77.90
2018-05-19T04:52:05.327Z,78.10
2018-05-19T04:54:31.554Z,78.40
2018-05-19T04:56:57.841Z,78.60
2018-05-19T04:59:24.022Z,78.50
2018-05-19T05:01:51.055Z,78.30
2018-05-19T05:04:17.290Z,78.00
2018-05-19T05:06:43.565Z,77.90
2018-05-19T05:09:09.826Z,77.70
2018-05-19T05:11:36.436Z,77.70
2018-05-19T05:14:02.803Z,77.70
2018-05-19T05:16:29.034Z,77.80
2018-05-19T05:18:55.285Z,78.30
2018-05-19T05:21:21.503Z,78.40
2018-05-19T05:23:47.787Z,78.50
2018-05-19T05:26:14.002Z,78.30
2018-05-19T05:28:40.210Z,78.50
2018-05-19T05:31:06.423Z,78.60
2018-05-19T05:33:32.710Z,78.60
2018-05-19T05:35:59.388Z,77.80
2018-05-19T05:38:25.549Z,77.80
2018-05-19T05:40:51.796Z,78.00
2018-05-19T05:43:18.438Z,78.10
2018-05-19T05:45:44.631Z,78.10
2018-05-19T05:48:10.908Z,78.30
2018-05-19T05:50:37.514Z,78.70
2018-05-19T05:53:03.749Z,78.70
2018-05-19T05:55:30.018Z,77.50
2018-05-19T05:57:56.274Z,77.40
2018-05-19T06:00:22.480Z,77.70
2018-05-19T06:02:48.691Z,78.10
2018-05-19T06:05:15.016Z,77.60
2018-05-19T06:07:41.211Z,77.70
2018-05-19T06:10:07.624Z,77.40
2018-05-19T06:12:33.826Z,77.90
2018-05-19T06:15:00.060Z,78.30
2018-05-19T06:17:26.295Z,77.60
2018-05-19T06:19:52.539Z,76.40
2018-05-19T06:22:18.765Z,77.00
2018-05-19T06:24:44.995Z,76.80
2018-05-19T06:27:11.206Z,76.50
2018-05-19T06:29:37.494Z,77.20
2018-05-19T06:32:03.726Z,77.50
2018-05-19T06:34:30.312Z,77.40
2018-05-19T06:36:56.541Z,77.40
2018-05-19T06:39:22.790Z,77.30
2018-05-19T06:41:49.020Z,76.10
2018-05-19T06:44:15.294Z,74.80
2018-05-19T06:46:41.545Z,76.10
2018-05-19T06:49:07.771Z,76.30
2018-05-19T06:51:37.055Z,76.40
2018-05-19T06:54:03.296Z,75.90
2018-05-19T06:56:29.585Z,73.60
2018-05-19T06:58:56.455Z,74.00
2018-05-19T07:01:22.723Z,74.00
2018-05-19T07:03:48.967Z,73.30
2018-05-19T07:06:15.221Z,73.10
2018-05-19T07:08:42.737Z,73.00
2018-05-19T07:11:08.960Z,73.00
2018-05-19T07:13:35.173Z,73.40
2018-05-19T07:16:01.384Z,74.30
2018-05-19T07:18:27.619Z,72.80
2018-05-19T07:20:53.843Z,72.50
2018-05-19T07:23:20.053Z,73.60
2018-05-19T07:25:46.592Z,73.20
2018-05-19T07:28:13.766Z,72.60
2018-05-19T07:30:39.992Z,72.30
2018-05-19T07:33:06.235Z,72.60
2018-05-19T07:35:32.461Z,71.80
2018-05-19T07:37:58.707Z,71.90
2018-05-19T07:40:24.930Z,70.60
2018-05-19T07:42:51.208Z,72.00
2018-05-19T07:45:17.791Z,71.40
2018-05-19T07:47:44.015Z,71.40
2018-05-19T07:50:10.273Z,70.60
2018-05-19T07:52:36.452Z,72.00
2018-05-19T07:55:02.681Z,71.10
2018-05-19T07:57:28.957Z,71.10
2018-05-19T07:59:55.210Z,70.80
2018-05-19T08:02:21.800Z,70.20
2018-05-19T08:04:48.058Z,70.20
2018-05-19T08:07:14.260Z,68.90
2018-05-19T08:09:40.478Z,71.30
2018-05-19T08:12:06.719Z,71.00
2018-05-19T08:14:32.957Z,71.90
2018-05-19T08:16:59.192Z,71.90
2018-05-19T08:19:25.466Z,70.20
2018-05-19T08:21:52.314Z,71.40
2018-05-19T08:24:18.543Z,71.10
2018-05-19T08:26:46.890Z,72.00
2018-05-19T08:29:13.144Z,70.40
2018-05-19T08:31:39.391Z,70.20
2018-05-19T08:34:05.605Z,70.40
2018-05-19T08:36:31.843Z,69.60
2018-05-19T08:38:58.068Z,69.20
2018-05-19T08:41:24.358Z,69.00
2018-05-19T08:43:51.008Z,68.20
2018-05-19T08:46:17.244Z,68.20
2018-05-19T08:48:44.105Z,68.90
2018-05-19T08:51:10.320Z,67.80
2018-05-19T08:53:36.558Z,65.90
2018-05-19T08:56:02.810Z,65.80
2018-05-19T08:58:29.063Z,65.00
2018-05-19T09:00:55.342Z,66.00
2018-05-19T09:03:21.588Z,67.90
2018-05-19T09:05:47.809Z,68.10
2018-05-19T09:08:14.058Z,68.10
2018-05-19T09:10:40.309Z,64.80
2018-05-19T09:13:06.907Z,65.20
2018-05-19T09:15:33.163Z,65.20
2018-05-19T09:17:59.416Z,62.80
2018-05-19T09:20:26.062Z,65.90
2018-05-19T09:22:52.280Z,65.90
2018-05-19T09:25:18.918Z,64.20
2018-05-19T09:27:45.627Z,64.30
2018-05-19T09:30:12.617Z,64.30
2018-05-19T09:32:38.890Z,63.90
2018-05-19T09:35:05.147Z,62.30
2018-05-19T09:37:31.373Z,63.00
2018-05-19T09:39:57.644Z,63.10
2018-05-19T09:42:23.855Z,63.60
2018-05-19T09:44:50.086Z,62.60
2018-05-19T09:47:16.443Z,63.10
2018-05-19T09:49:43.021Z,64.60
2018-05-19T09:52:09.255Z,64.60
2018-05-19T09:54:35.522Z,63.80
2018-05-19T09:57:01.732Z,64.40
2018-05-19T09:59:28.337Z,62.30
2018-05-19T10:01:54.611Z,62.30
2018-05-19T10:04:20.834Z,64.00
2018-05-19T10:06:47.063Z,62.90
2018-05-19T10:09:13.316Z,61.60
2018-05-19T10:11:39.647Z,63.30
2018-05-19T10:14:05.778Z,62.00
2018-05-19T10:16:32.037Z,63.10
2018-05-19T10:18:58.292Z,62.00
2018-05-19T10:21:24.500Z,60.10
2018-05-19T10:23:50.706Z,60.70
2018-05-19T10:26:16.973Z,60.20
2018-05-19T10:28:43.446Z,62.20
2018-05-19T10:31:09.780Z,62.70
2018-05-19T10:33:35.994Z,60.50
2018-05-19T10:36:02.216Z,57.30
2018-05-19T10:38:28.585Z,57.20
2018-05-19T10:40:54.852Z,59.10
2018-05-19T10:43:21.453Z,59.60
2018-05-19T10:45:47.692Z,59.60
2018-05-19T10:48:13.911Z,60.00
2018-05-19T10:50:40.137Z,57.20
2018-05-19T10:53:06.400Z,59.10
2018-05-19T10:55:32.996Z,59.30
2018-05-19T10:57:59.609Z,59.30
2018-05-19T11:00:25.866Z,59.30
2018-05-19T11:02:52.098Z,58.60
2018-05-19T11:05:18.291Z,58.80
2018-05-19T11:07:44.529Z,58.50
2018-05-19T11:10:10.738Z,59.40
2018-05-19T11:12:37.002Z,58.70
2018-05-19T11:15:03.276Z,60.40
2018-05-19T11:17:29.874Z,57.60
2018-05-19T11:19:57.106Z,57.60
2018-05-19T11:22:23.352Z,57.00
2018-05-19T11:24:49.578Z,58.70
2018-05-19T11:27:15.800Z,59.90
2018-05-19T11:29:42.040Z,58.00
2018-05-19T11:32:08.286Z,59.10
2018-05-19T11:34:35.223Z,60.70
2018-05-19T11:37:01.466Z,60.00
2018-05-19T11:39:27.715Z,62.10
2018-05-19T11:41:53.961Z,58.20
2018-05-19T11:44:20.176Z,59.30
2018-05-19T11:46:46.422Z,56.70
2018-05-19T11:49:12.652Z,57.00
2018-05-19T11:51:38.858Z,55.90
2018-05-19T11:54:05.092Z,56.10
2018-05-19T11:56:31.288Z,55.50
2018-05-19T11:58:57.511Z,55.50
2018-05-19T12:01:25.021Z,55.50
2018-05-19T12:03:51.258Z,55.00
2018-05-19T12:06:17.489Z,54.00
2018-05-19T12:08:43.696Z,57.00
2018-05-19T12:11:09.942Z,55.60
2018-05-19T12:13:36.167Z,57.10
2018-05-19T12:16:02.417Z,55.90
2018-05-19T12:18:28.719Z,55.10
2018-05-19T12:20:54.920Z,55.30
2018-05-19T12:23:21.516Z,53.90
2018-05-19T12:25:47.813Z,53.80
2018-05-19T12:28:14.054Z,55.40
2018-05-19T12:30:40.363Z,58.10
2018-05-19T12:33:06.650Z,56.10
2018-05-19T12:35:32.850Z,54.40
2018-05-19T12:38:00.078Z,58.10
2018-05-19T12:40:26.306Z,55.70
2018-05-19T12:42:52.504Z,57.60
2018-05-19T12:45:19.135Z,55.10
2018-05-19T12:47:45.381Z,55.10
2018-05-19T12:50:11.640Z,56.00
2018-05-19T12:52:37.884Z,56.90
2018-05-19T12:55:04.163Z,57.60
2018-05-19T12:57:30.434Z,58.10
2018-05-19T12:59:56.684Z,57.50
2018-05-19T13:02:22.889Z,56.60
2018-05-19T13:04:49.128Z,59.70
2018-05-19T13:07:15.378Z,57.50
2018-05-19T13:09:41.611Z,57.80
2018-05-19T13:12:07.841Z,58.30
2018-05-19T13:14:34.080Z,58.30
2018-05-19T13:17:00.307Z,58.80
2018-05-19T13:19:26.535Z,59.00
2018-05-19T13:21:52.832Z,55.10
2018-05-19T13:24:19.046Z,57.00
2018-05-19T13:26:45.442Z,59.50
2018-05-19T13:29:11.749Z,56.70
2018-05-19T13:31:38.009Z,57.30
2018-05-19T13:34:04.891Z,57.40
2018-05-19T13:36:31.161Z,56.80
2018-05-19T13:38:57.387Z,58.20
2018-05-19T13:41:23.667Z,56.60
2018-05-19T13:43:49.876Z,58.50
2018-05-19T13:46:16.124Z,56.20
2018-05-19T13:48:43.211Z,56.00
2018-05-19T13:51:11.787Z,58.90
2018-05-19T13:53:38.000Z,58.90
2018-05-19T13:56:04.250Z,59.90
2018-05-19T13:58:30.501Z,59.50
2018-05-19T14:00:56.708Z,58.70
2018-05-19T14:03:23.284Z,59.70
2018-05-19T14:05:49.534Z,59.70
2018-05-19T14:08:15.759Z,58.40
2018-05-19T14:10:42.009Z,58.30
2018-05-19T14:13:08.252Z,57.60
2018-05-19T14:15:34.531Z,58.30
2018-05-19T14:18:00.774Z,58.70
2018-05-19T14:20:27.049Z,57.70
2018-05-19T14:22:53.677Z,58.10
2018-05-19T14:25:20.255Z,55.80
2018-05-19T14:27:47.552Z,55.80
2018-05-19T14:30:13.772Z,55.00
2018-05-19T14:32:40.009Z,54.10
2018-05-19T14:35:06.314Z,55.80
2018-05-19T14:37:33.190Z,56.50
2018-05-19T14:39:59.441Z,58.30
2018-05-19T14:42:25.717Z,58.90
2018-05-19T14:44:52.932Z,58.70
2018-05-19T14:47:19.196Z,55.80
2018-05-19T14:49:45.586Z,56.20
2018-05-19T14:52:11.806Z,57.00
2018-05-19T14:54:38.422Z,57.80
2018-05-19T14:57:04.624Z,57.80
2018-05-19T14:59:30.897Z,58.40
2018-05-19T15:01:57.160Z,55.20
2018-05-19T15:04:23.449Z,56.80
2018-05-19T15:06:49.695Z,58.00
2018-05-19T15:09:15.940Z,56.90
2018-05-19T15:11:42.220Z,58.20
2018-05-19T15:14:08.469Z,58.90
2018-05-19T15:16:35.110Z,57.60
2018-05-19T15:19:01.374Z,57.60
2018-05-19T15:21:27.696Z,58.60
2018-05-19T15:23:54.496Z,58.40
2018-05-19T15:26:21.109Z,56.20
2018-05-19T15:28:47.392Z,56.30
2018-05-19T15:31:13.611Z,58.60
2018-05-19T15:33:40.233Z,58.20
2018-05-19T15:36:07.367Z,57.80
2018-05-19T15:38:33.688Z,57.80
2018-05-19T15:40:59.887Z,56.10
2018-05-19T15:43:26.175Z,52.70
2018-05-19T15:45:52.880Z,55.00
2018-05-19T15:48:19.243Z,55.00
2018-05-19T15:50:45.871Z,52.90
2018-05-19T15:53:13.461Z,51.70
2018-05-19T15:55:39.730Z,51.70
2018-05-19T15:58:06.034Z,51.50
2018-05-19T16:00:32.313Z,50.40
2018-05-19T16:02:58.760Z,52.20
2018-05-19T16:05:24.962Z,52.20
2018-05-19T16:07:51.160Z,52.00
2018-05-19T16:10:17.437Z,49.90
2018-05-19T16:12:45.634Z,48.90
2018-05-19T16:15:11.902Z,48.70
2018-05-19T16:17:38.140Z,50.80
2018-05-19T16:20:04.428Z,50.60
2018-05-19T16:22:30.649Z,51.80
2018-05-19T16:24:56.917Z,53.20
2018-05-19T16:27:23.241Z,54.70
2018-05-19T16:29:49.462Z,54.70
2018-05-19T16:32:15.723Z,55.80
2018-05-19T16:34:42.038Z,55.70
2018-05-19T16:37:08.199Z,57.10
2018-05-19T16:39:34.846Z,60.90
2018-05-19T16:42:01.068Z,60.90
2018-05-19T16:44:27.305Z,61.30
2018-05-19T16:46:54.002Z,63.50
2018-05-19T16:49:20.244Z,63.50
2018-05-19T16:51:47.238Z,64.80
2018-05-19T16:54:13.503Z,66.60
2018-05-19T16:56:39.714Z,70.20
2018-05-19T16:59:06.583Z,72.20
2018-05-19T17:01:33.249Z,72.50
2018-05-19T17:03:59.870Z,73.10
2018-05-19T17:06:26.122Z,73.10
2018-05-19T17:08:52.743Z,74.50
2018-05-19T17:11:19.362Z,72.60
2018-05-19T17:13:45.598Z,72.60
2018-05-19T17:16:11.939Z,72.70
2018-05-19T17:18:38.195Z,74.10
2018-05-19T17:21:04.418Z,73.10
2018-05-19T17:23:30.688Z,74.20
2018-05-19T17:25:57.043Z,74.10
2018-05-19T17:28:24.114Z,73.40
2018-05-19T17:30:50.400Z,74.20
2018-05-19T17:33:16.660Z,74.30
2018-05-19T17:35:43.301Z,75.50
2018-05-19T17:38:10.006Z,74.80
2018-05-19T17:40:36.309Z,74.80
2018-05-19T17:43:02.574Z,76.10
2018-05-19T17:45:29.761Z,76.70
2018-05-19T17:47:56.026Z,75.60
2018-05-19T17:50:22.247Z,76.50
2018-05-19T17:52:48.456Z,76.40
2018-05-19T17:55:14.724Z,76.40
2018-05-19T17:57:40.996Z,75.30
2018-05-19T18:00:07.634Z,74.30
2018-05-19T18:02:34.270Z,75.70
2018-05-19T18:05:00.945Z,74.50
2018-05-19T18:07:27.240Z,74.50
2018-05-19T18:09:53.454Z,75.00
2018-05-19T18:12:19.962Z,75.90
2018-05-19T18:14:46.537Z,74.80
2018-05-19T18:17:13.233Z,74.80
2018-05-19T18:19:39.502Z,74.80
2018-05-19T18:22:06.114Z,76.60
2018-05-19T18:24:32.365Z,76.60
2018-05-19T18:26:58.968Z,77.50
2018-05-19T18:29:25.323Z,77.50
2018-05-19T18:31:51.544Z,77.30
2018-05-19T18:34:17.839Z,76.50
2018-05-19T18:36:44.099Z,75.30
2018-05-19T18:39:10.327Z,75.60
2018-05-19T18:41:36.577Z,75.40
2018-05-19T18:44:03.224Z,75.20
2018-05-19T18:46:29.890Z,75.60
2018-05-19T18:48:56.216Z,75.60
2018-05-19T18:51:22.542Z,75.80
2018-05-19T18:53:48.857Z,75.90
2018-05-19T18:56:15.797Z,77.10
2018-05-19T18:58:42.494Z,77.00
2018-05-19T19:01:09.842Z,77.00
2018-05-19T19:03:36.161Z,77.40
2018-05-19T19:06:02.464Z,77.50
2018-05-19T19:08:28.771Z,77.20
2018-05-19T19:10:55.522Z,75.50
2018-05-19T19:13:21.867Z,75.50
2018-05-19T19:15:48.228Z,75.50
2018-05-19T19:18:14.500Z,74.80
2018-05-19T19:20:41.173Z,74.30
2018-05-19T19:23:07.428Z,74.30
2018-05-19T19:25:33.659Z,74.30
2018-05-19T19:27:59.985Z,73.20
2018-05-19T19:30:26.267Z,75.20
2018-05-19T19:32:52.899Z,76.40
2018-05-19T19:35:19.583Z,76.00
2018-05-19T19:37:45.798Z,76.00
2018-05-19T19:40:12.033Z,75.10
2018-05-19T19:42:38.298Z,77.10
2018-05-19T19:45:04.513Z,76.20
2018-05-19T19:47:31.355Z,74.20
2018-05-19T19:49:57.645Z,74.40
2018-05-19T19:52:23.843Z,74.20
2018-05-19T19:54:50.084Z,75.40
2018-05-19T19:57:16.370Z,74.30
2018-05-19T19:59:42.689Z,73.80
2018-05-19T20:02:08.926Z,74.80
2018-05-19T20:04:35.160Z,77.40
2018-05-19T20:07:01.424Z,77.70
2018-05-19T20:09:27.777Z,77.80
2018-05-19T20:11:53.996Z,78.80
2018-05-19T20:14:20.247Z,78.70
2018-05-19T20:16:46.492Z,79.10
2018-05-19T20:19:12.771Z,79.20
2018-05-19T20:21:39.044Z,78.40
2018-05-19T20:24:05.294Z,78.10
2018-05-19T20:26:32.541Z,78.30
2018-05-19T20:28:58.807Z,78.90
2018-05-19T20:31:25.505Z,78.70
2018-05-19T20:33:52.658Z,78.70
2018-05-19T20:36:19.523Z,78.70
2018-05-19T20:38:45.774Z,79.30
2018-05-19T20:41:12.367Z,79.50
2018-05-19T20:43:38.659Z,79.50
2018-05-19T20:46:04.933Z,78.90
2018-05-19T20:48:31.231Z,79.90
2018-05-19T20:50:58.172Z,80.60
2018-05-19T20:53:25.334Z,80.50
2018-05-19T20:55:52.370Z,80.20
2018-05-19T20:58:18.694Z,79.70
2018-05-19T21:00:44.954Z,79.10
2018-05-19T21:03:11.213Z,79.20
2018-05-19T21:05:37.481Z,79.00
2018-05-19T21:08:04.390Z,79.30
2018-05-19T21:10:31.925Z,79.30
2018-05-19T21:12:58.217Z,79.40
2018-05-19T21:15:24.460Z,80.20
2018-05-19T21:17:50.720Z,80.30
2018-05-19T21:20:17.030Z,79.50
2018-05-19T21:22:43.257Z,80.00
2018-05-19T21:25:09.476Z,77.90
2018-05-19T21:27:35.771Z,79.30
2018-05-19T21:30:02.057Z,79.60
2018-05-19T21:32:28.272Z,80.70
2018-05-19T21:34:54.540Z,80.20
2018-05-19T21:37:21.168Z,80.10
2018-05-19T21:39:47.747Z,80.10
2018-05-19T21:42:14.019Z,80.10
2018-05-19T21:44:40.241Z,79.10
2018-05-19T21:47:06.443Z,77.10
2018-05-19T21:49:32.690Z,77.00
2018-05-19T21:51:58.911Z,77.20
2018-05-19T21:54:25.173Z,77.70
2018-05-19T21:56:51.447Z,79.30
2018-05-19T21:59:17.679Z,79.00
2018-05-19T22:01:43.902Z,80.20
2018-05-19T22:04:10.136Z,80.70
2018-05-19T22:06:36.409Z,79.90
2018-05-19T22:09:02.722Z,80.50
2018-05-19T22:11:28.983Z,81.60
2018-05-19T22:13:55.631Z,82.10
2018-05-19T22:16:21.888Z,82.10
2018-05-19T22:18:48.118Z,81.80
2018-05-19T22:21:14.407Z,82.10
2018-05-19T22:23:41.018Z,81.30
2018-05-19T22:26:07.270Z,81.30
2018-05-19T22:28:33.507Z,81.60
2018-05-19T22:31:00.120Z,81.10
2018-05-19T22:33:26.356Z,81.10
2018-05-19T22:35:52.569Z,81.30
2018-05-19T22:38:18.791Z,81.10
2018-05-19T22:40:45.073Z,80.80
2018-05-19T22:43:11.319Z,81.30
2018-05-19T22:45:37.538Z,81.10
2018-05-19T22:48:03.815Z,81.10
2018-05-19T22:50:30.802Z,81.00
2018-05-19T22:52:57.056Z,81.00
2018-05-19T22:55:23.262Z,81.00
2018-05-19T22:57:49.507Z,81.30
2018-05-19T23:00:18.574Z,81.60
2018-05-19T23:02:44.804Z,81.50
2018-05-19T23:05:11.041Z,81.40
2018-05-19T23:07:37.288Z,81.70
2018-05-19T23:10:03.498Z,82.10
2018-05-19T23:12:29.752Z,82.50
2018-05-19T23:14:56.011Z,82.50
2018-05-19T23:17:23.157Z,82.40
2018-05-19T23:19:49.931Z,82.40
2018-05-19T23:22:16.200Z,81.80
2018-05-19T23:24:42.402Z,81.50
2018-05-19T23:27:08.668Z,81.30
2018-05-19T23:29:34.930Z,81.50
2018-05-19T23:32:01.164Z,81.30
2018-05-19T23:34:27.393Z,81.40
2018-05-19T23:36:53.610Z,81.80
2018-05-19T23:39:19.833Z,82.20
2018-05-19T23:41:46.114Z,82.90
2018-05-19T23:44:12.334Z,82.90
2018-05-19T23:46:38.580Z,82.50
2018-05-19T23:49:04.763Z,82.70
2018-05-19T23:51:30.994Z,83.60
2018-05-19T23:53:57.630Z,83.80
2018-05-19T23:56:23.828Z,83.80
2018-05-19T23:58:50.060Z,83.80
